Time,TemperatureF,DewpointF,PressureIn,WindDirection,WindDirectionDegrees,WindSpeedMPH,WindSpeedGustMPH,Humidity,HourlyPrecipIn,Conditions,Clouds,dailyrainin,SoftwareType,DateUTC
2013-01-15 00:01:00,39.0,21.0,30.58,ESE,113,3.0,5.0,49,0.00,,,0.01,,2013-01-15 08:01:00,
2013-01-15 00:22:00,39.0,21.0,30.58,ESE,115,1.0,3.0,48,0.00,,,0.01,,2013-01-15 08:22:00,
2013-01-15 00:32:00,40.0,22.0,30.58,ESE,120,3.0,6.0,48,0.00,,,0.01,,2013-01-15 08:32:00,
2013-01-15 00:52:00,40.0,22.0,30.58,ESE,119,2.0,3.0,49,0.00,,,0.01,,2013-01-15 08:52:00,
2013-01-15 01:02:00,40.0,22.0,30.59,SE,136,2.0,3.0,49,0.00,,,0.01,,2013-01-15 09:02:00,
2013-01-15 01:22:00,40.0,23.0,30.59,East,96,2.0,3.0,50,0.00,,,0.01,,2013-01-15 09:22:00,
2013-01-15 01:33:00,40.0,23.0,30.59,ENE,76,2.0,4.0,50,0.00,,,0.01,,2013-01-15 09:33:00,
2013-01-15 01:52:00,40.0,23.0,30.59,ESE,111,3.0,4.0,50,0.00,,,0.01,,2013-01-15 09:52:00,
2013-01-15 02:01:00,40.0,23.0,30.60,East,101,2.0,3.0,50,0.00,,,0.01,,2013-01-15 10:01:00,
2013-01-15 02:22:00,40.0,24.0,30.61,ENE,73,2.0,3.0,53,0.00,,,0.01,,2013-01-15 10:22:00,
2013-01-15 02:32:00,40.0,24.0,30.61,SE,130,4.0,5.0,53,0.00,,,0.01,,2013-01-15 10:32:00,
2013-01-15 02:52:00,40.0,24.0,30.61,ESE,105,2.0,3.0,52,0.00,,,0.01,,2013-01-15 10:52:00,
2013-01-15 03:02:00,40.0,23.0,30.61,ESE,111,1.0,2.0,51,0.00,,,0.01,,2013-01-15 11:02:00,
2013-01-15 03:22:00,40.0,24.0,30.61,ESE,111,1.0,2.0,52,0.00,,,0.01,,2013-01-15 11:22:00,
2013-01-15 03:32:00,40.0,24.0,30.61,ENE,75,1.0,3.0,53,0.00,,,0.01,,2013-01-15 11:32:00,
2013-01-15 03:52:00,40.0,24.0,30.61,East,90,2.0,2.0,53,0.00,,,0.01,,2013-01-15 11:52:00,
2013-01-15 04:02:00,40.0,23.0,30.61,ESE,107,2.0,3.0,51,0.00,,,0.01,,2013-01-15 12:02:00,
2013-01-15 04:22:00,39.0,20.0,30.61,SE,127,2.0,4.0,46,0.00,,,0.01,,2013-01-15 12:22:00,
2013-01-15 04:32:00,39.0,18.0,30.61,East,96,1.0,3.0,43,0.00,,,0.01,,2013-01-15 12:32:00,
2013-01-15 04:53:00,39.0,18.0,30.61,East,94,2.0,4.0,43,0.00,,,0.01,,2013-01-15 12:53:00,
2013-01-15 05:02:00,39.0,17.0,30.61,ESE,123,3.0,4.0,41,0.00,,,0.01,,2013-01-15 13:02:00,
2013-01-15 05:22:00,39.0,15.0,30.61,ESE,109,5.0,6.0,37,0.00,,,0.01,,2013-01-15 13:22:00,
2013-01-15 05:32:00,39.0,12.0,30.61,ESE,123,2.0,4.0,33,0.00,,,0.01,,2013-01-15 13:32:00,
2013-01-15 05:53:00,39.0,12.0,30.61,ESE,103,1.0,4.0,32,0.00,,,0.01,,2013-01-15 13:53:00,
2013-01-15 06:02:00,39.0,11.0,30.61,East,98,2.0,4.0,31,0.00,,,0.01,,2013-01-15 14:02:00,
2013-01-15 06:22:00,38.0,9.0,30.61,ENE,69,1.0,4.0,29,0.00,,,0.01,,2013-01-15 14:22:00,
2013-01-15 06:32:00,39.0,9.0,30.62,ENE,67,0.0,3.0,28,0.00,,,0.01,,2013-01-15 14:32:00,
2013-01-15 07:02:00,39.0,9.0,30.63,ENE,76,1.0,4.0,28,0.00,,,0.01,,2013-01-15 15:02:00,
2013-01-15 07:23:00,39.0,9.0,30.63,ESE,104,2.0,4.0,28,0.00,,,0.01,,2013-01-15 15:23:00,
2013-01-15 07:32:00,39.0,9.0,30.63,East,86,2.0,3.0,28,0.00,,,0.01,,2013-01-15 15:32:00,
2013-01-15 07:53:00,39.0,9.0,30.63,ESE,106,1.0,3.0,28,0.00,,,0.01,,2013-01-15 15:53:00,
2013-01-15 08:02:00,39.0,9.0,30.63,ENE,63,3.0,4.0,28,0.00,,,0.01,,2013-01-15 16:02:00,
2013-01-15 08:22:00,39.0,10.0,30.64,East,96,2.0,5.0,30,0.00,,,0.01,,2013-01-15 16:22:00,
2013-01-15 08:32:00,39.0,12.0,30.65,ESE,105,1.0,3.0,33,0.00,,,0.01,,2013-01-15 16:32:00,
2013-01-15 08:53:00,39.0,14.0,30.65,East,84,2.0,5.0,36,0.00,,,0.01,,2013-01-15 16:53:00,
2013-01-15 09:02:00,40.0,18.0,30.66,ESE,103,2.0,6.0,41,0.00,,,0.01,,2013-01-15 17:02:00,
2013-01-15 09:22:00,40.0,21.0,30.66,ESE,109,3.0,5.0,47,0.00,,,0.01,,2013-01-15 17:22:00,
2013-01-15 09:32:00,40.0,24.0,30.66,East,85,3.0,5.0,53,0.00,,,0.01,,2013-01-15 17:32:00,
2013-01-15 09:53:00,41.0,31.0,30.66,ENE,69,5.0,9.0,68,0.00,,,0.01,,2013-01-15 17:53:00,
2013-01-15 10:02:00,42.0,38.0,30.67,East,84,1.0,3.0,87,0.00,,,0.01,,2013-01-15 18:02:00,
2013-01-15 10:12:00,42.0,38.0,30.67,East,84,1.0,3.0,87,0.00,,,0.01,,2013-01-15 18:12:00,
2013-01-15 10:22:00,43.0,43.0,30.67,SE,130,3.0,5.0,100,0.00,,,0.01,,2013-01-15 18:22:00,
2013-01-15 10:33:00,43.0,43.0,30.67,ESE,112,4.0,6.0,100,0.00,,,0.01,,2013-01-15 18:33:00,
2013-01-15 10:42:00,43.0,43.0,30.67,ESE,112,4.0,6.0,100,0.00,,,0.01,,2013-01-15 18:42:00,
2013-01-15 10:53:00,44.0,44.0,30.68,ENE,58,4.0,6.0,100,0.00,,,0.01,,2013-01-15 18:53:00,
2013-01-15 11:02:00,45.0,45.0,30.68,NE,46,4.0,6.0,100,0.00,,,0.01,,2013-01-15 19:02:00,
2013-01-15 11:12:00,45.0,45.0,30.68,NE,46,4.0,6.0,100,0.00,,,0.01,,2013-01-15 19:12:00,
2013-01-15 11:22:00,45.0,45.0,30.68,East,84,5.0,7.0,100,0.00,,,0.01,,2013-01-15 19:22:00,
2013-01-15 11:32:00,46.0,46.0,30.67,East,88,4.0,8.0,100,0.00,,,0.01,,2013-01-15 19:32:00,
2013-01-15 11:42:00,46.0,46.0,30.67,East,88,4.0,8.0,100,0.00,,,0.01,,2013-01-15 19:42:00,
2013-01-15 11:53:00,47.0,47.0,30.67,NE,52,4.0,6.0,100,0.00,,,0.01,,2013-01-15 19:53:00,
2013-01-15 12:02:00,47.0,47.0,30.67,NE,49,4.0,7.0,100,0.00,,,0.01,,2013-01-15 20:02:00,
2013-01-15 12:12:00,47.0,47.0,30.67,NE,49,4.0,7.0,100,0.00,,,0.01,,2013-01-15 20:12:00,
2013-01-15 12:22:00,47.0,47.0,30.66,NE,43,4.0,9.0,100,0.00,,,0.01,,2013-01-15 20:22:00,
2013-01-15 12:33:00,48.0,48.0,30.66,NNE,31,7.0,10.0,100,0.00,,,0.01,,2013-01-15 20:33:00,
2013-01-15 12:42:00,48.0,48.0,30.66,NNE,31,7.0,10.0,100,0.00,,,0.01,,2013-01-15 20:42:00,
2013-01-15 12:53:00,47.0,47.0,30.65,ENE,67,3.0,7.0,100,0.00,,,0.01,,2013-01-15 20:53:00,
2013-01-15 13:02:00,47.0,47.0,30.64,NW,304,4.0,7.0,100,0.00,,,0.01,,2013-01-15 21:02:00,
2013-01-15 13:12:00,47.0,47.0,30.64,NW,304,4.0,7.0,100,0.00,,,0.01,,2013-01-15 21:12:00,
2013-01-15 13:22:00,47.0,47.0,30.64,North,355,7.0,10.0,100,0.00,,,0.01,,2013-01-15 21:22:00,
2013-01-15 13:33:00,47.0,47.0,30.64,NNE,27,5.0,9.0,100,0.00,,,0.01,,2013-01-15 21:33:00,
2013-01-15 13:42:00,47.0,47.0,30.64,NNE,27,5.0,9.0,100,0.00,,,0.01,,2013-01-15 21:42:00,
2013-01-15 13:53:00,47.0,47.0,30.63,NW,325,2.0,5.0,100,0.00,,,0.01,,2013-01-15 21:53:00,
2013-01-15 14:02:00,47.0,47.0,30.63,NNW,335,5.0,10.0,100,0.00,,,0.01,,2013-01-15 22:02:00,
2013-01-15 14:12:00,47.0,47.0,30.63,NNW,335,5.0,10.0,100,0.00,,,0.01,,2013-01-15 22:12:00,
2013-01-15 14:22:00,47.0,47.0,30.63,NNW,345,7.0,13.0,100,0.00,,,0.01,,2013-01-15 22:22:00,
2013-01-15 14:32:00,47.0,47.0,30.63,NNE,12,5.0,10.0,100,0.00,,,0.01,,2013-01-15 22:32:00,
2013-01-15 14:42:00,47.0,47.0,30.63,NNE,12,5.0,10.0,100,0.00,,,0.01,,2013-01-15 22:42:00,
2013-01-15 14:52:00,48.0,48.0,30.63,NNE,27,4.0,7.0,100,0.00,,,0.01,,2013-01-15 22:52:00,
2013-01-15 15:02:00,48.0,48.0,30.63,North,355,5.0,10.0,100,0.00,,,0.01,,2013-01-15 23:02:00,
2013-01-15 15:12:00,48.0,48.0,30.63,North,355,5.0,10.0,100,0.00,,,0.01,,2013-01-15 23:12:00,
2013-01-15 15:22:00,49.0,49.0,30.63,North,5,4.0,8.0,100,0.00,,,0.01,,2013-01-15 23:22:00,
2013-01-15 15:32:00,50.0,50.0,30.63,NE,47,5.0,8.0,100,0.00,,,0.01,,2013-01-15 23:32:00,
2013-01-15 15:42:00,50.0,50.0,30.63,NE,47,5.0,8.0,100,0.00,,,0.01,,2013-01-15 23:42:00,
2013-01-15 15:53:00,50.0,50.0,30.63,NNE,28,5.0,7.0,100,0.00,,,0.01,,2013-01-15 23:53:00,
2013-01-15 16:02:00,50.0,50.0,30.64,NE,52,5.0,7.0,100,0.00,,,0.01,,2013-01-16 00:02:00,
2013-01-15 16:12:00,50.0,50.0,30.64,NE,52,5.0,7.0,100,0.00,,,0.01,,2013-01-16 00:12:00,
2013-01-15 16:22:00,50.0,50.0,30.64,ENE,75,5.0,7.0,100,0.00,,,0.01,,2013-01-16 00:22:00,
2013-01-15 16:32:00,49.0,49.0,30.65,ENE,57,5.0,10.0,100,0.00,,,0.01,,2013-01-16 00:32:00,
2013-01-15 16:42:00,49.0,49.0,30.65,ENE,57,5.0,10.0,100,0.00,,,0.01,,2013-01-16 00:42:00,
2013-01-15 16:53:00,48.0,48.0,30.65,ENE,59,4.0,9.0,100,0.00,,,0.01,,2013-01-16 00:53:00,
2013-01-15 17:02:00,47.0,47.0,30.64,ENE,76,3.0,7.0,100,0.00,,,0.01,,2013-01-16 01:02:00,
2013-01-15 17:11:00,47.0,47.0,30.64,ENE,76,3.0,7.0,100,0.00,,,0.01,,2013-01-16 01:11:00,
2013-01-15 17:22:00,45.0,45.0,30.64,NE,42,3.0,9.0,100,0.00,,,0.01,,2013-01-16 01:22:00,
2013-01-15 17:32:00,43.0,43.0,30.64,NE,54,5.0,9.0,100,0.00,,,0.01,,2013-01-16 01:32:00,
2013-01-15 17:42:00,43.0,43.0,30.64,NE,54,5.0,9.0,100,0.00,,,0.01,,2013-01-16 01:42:00,
2013-01-15 17:53:00,42.0,42.0,30.64,NNE,24,6.0,10.0,100,0.00,,,0.01,,2013-01-16 01:53:00,
2013-01-15 18:02:00,41.0,41.0,30.65,NE,53,6.0,11.0,100,0.00,,,0.01,,2013-01-16 02:02:00,
2013-01-15 18:12:00,41.0,41.0,30.65,NE,53,6.0,11.0,100,0.00,,,0.01,,2013-01-16 02:12:00,
2013-01-15 18:22:00,40.0,40.0,30.64,NE,35,6.0,12.0,100,0.00,,,0.01,,2013-01-16 02:22:00,
2013-01-15 18:32:00,40.0,40.0,30.65,NNE,33,7.0,11.0,100,0.00,,,0.01,,2013-01-16 02:32:00,
2013-01-15 18:42:00,40.0,40.0,30.65,NNE,33,7.0,11.0,100,0.00,,,0.01,,2013-01-16 02:42:00,
2013-01-15 18:53:00,39.0,39.0,30.65,ENE,69,4.0,9.0,100,0.00,,,0.01,,2013-01-16 02:53:00,
2013-01-15 19:02:00,39.0,38.0,30.65,ENE,77,3.0,9.0,97,0.00,,,0.01,,2013-01-16 03:02:00,
2013-01-15 19:11:00,39.0,38.0,30.65,ENE,77,3.0,9.0,97,0.00,,,0.01,,2013-01-16 03:11:00,
2013-01-15 19:22:00,38.0,34.0,30.64,NNE,31,3.0,5.0,87,0.00,,,0.01,,2013-01-16 03:22:00,
2013-01-15 19:32:00,38.0,33.0,30.64,ENE,61,4.0,7.0,81,0.00,,,0.01,,2013-01-16 03:32:00,
2013-01-15 19:42:00,38.0,33.0,30.64,ENE,61,4.0,7.0,81,0.00,,,0.01,,2013-01-16 03:42:00,
2013-01-15 19:53:00,38.0,31.0,30.64,East,85,2.0,5.0,77,0.00,,,0.01,,2013-01-16 03:53:00,
2013-01-15 20:02:00,38.0,30.0,30.64,East,98,5.0,10.0,73,0.00,,,0.01,,2013-01-16 04:02:00,
2013-01-15 20:11:00,38.0,30.0,30.64,East,98,5.0,10.0,73,0.00,,,0.01,,2013-01-16 04:11:00,
2013-01-15 20:22:00,38.0,29.0,30.64,NE,34,3.0,9.0,70,0.00,,,0.01,,2013-01-16 04:22:00,
2013-01-15 20:32:00,38.0,28.0,30.64,East,79,5.0,10.0,68,0.00,,,0.01,,2013-01-16 04:32:00,
2013-01-15 20:42:00,38.0,28.0,30.64,East,79,5.0,10.0,68,0.00,,,0.01,,2013-01-16 04:42:00,
2013-01-15 20:52:00,38.0,27.0,30.63,ENE,74,3.0,10.0,65,0.00,,,0.01,,2013-01-16 04:52:00,
2013-01-15 21:03:00,37.0,25.0,30.63,ENE,77,5.0,12.0,61,0.00,,,0.01,,2013-01-16 05:03:00,
2013-01-15 21:22:00,37.0,23.0,30.64,East,82,6.0,9.0,57,0.00,,,0.01,,2013-01-16 05:22:00,
2013-01-15 21:32:00,37.0,21.0,30.64,NE,48,7.0,11.0,51,0.00,,,0.01,,2013-01-16 05:32:00,
2013-01-15 21:53:00,37.0,19.0,30.63,East,80,4.0,7.0,47,0.00,,,0.01,,2013-01-16 05:53:00,
2013-01-15 22:02:00,37.0,18.0,30.63,East,82,4.0,9.0,45,0.00,,,0.01,,2013-01-16 06:02:00,
2013-01-15 22:22:00,37.0,15.0,30.63,ENE,78,6.0,10.0,40,0.00,,,0.00,,2013-01-16 06:22:00,
2013-01-15 22:32:00,37.0,14.0,30.63,ENE,71,6.0,10.0,38,0.00,,,0.00,,2013-01-16 06:32:00,
2013-01-15 22:52:00,36.0,11.0,30.63,ENE,72,5.0,9.0,35,0.00,,,0.00,,2013-01-16 06:52:00,
2013-01-15 23:02:00,36.0,10.0,30.62,ENE,65,4.0,11.0,34,0.00,,,0.00,,2013-01-16 07:02:00,
2013-01-15 23:22:00,36.0,9.0,30.62,ENE,70,4.0,10.0,32,0.00,,,0.00,,2013-01-16 07:22:00,
2013-01-15 23:32:00,36.0,7.0,30.62,ENE,70,3.0,10.0,29,0.00,,,0.00,,2013-01-16 07:32:00,
2013-01-15 23:52:00,36.0,4.0,30.63,East,87,5.0,11.0,25,0.00,,,0.00,,2013-01-16 07:52:00,